sensor_id;sensor_type;location;lat;lon;timestamp;pressure;altitude;pressure_sealevel;temperature;humidity
6423;BME280;3244;42.708;23.288;2023-05-15T00:01:29;95019.28;;;12.16;96.57
6423;BME280;3244;42.708;23.288;2023-05-15T00:03:56;95028.41;;;12.22;96.05
6423;BME280;3244;42.708;23.288;2023-05-15T00:06:23;95015.97;;;12.14;96.55
6423;BME280;3244;42.708;23.288;2023-05-15T00:08:51;95017.78;;;12.12;96.45
6423;BME280;3244;42.708;23.288;2023-05-15T00:11:17;95026.38;;;12.30;96.09
6423;BME280;3244;42.708;23.288;2023-05-15T00:13:44;95037.91;;;12.39;95.96
6423;BME280;3244;42.708;23.288;2023-05-15T00:16:11;95048.38;;;12.53;95.23
6423;BME280;3244;42.708;23.288;2023-05-15T00:18:37;95056.78;;;12.55;94.78
6423;BME280;3244;42.708;23.288;2023-05-15T00:21:04;95049.78;;;12.60;94.14
6423;BME280;3244;42.708;23.288;2023-05-15T00:23:31;95042.28;;;12.57;93.74
6423;BME280;3244;42.708;23.288;2023-05-15T00:25:59;95040.09;;;12.48;94.42
6423;BME280;3244;42.708;23.288;2023-05-15T00:28:26;95040.97;;;12.47;95.05
6423;BME280;3244;42.708;23.288;2023-05-15T00:30:53;95050.41;;;12.45;94.99
6423;BME280;3244;42.708;23.288;2023-05-15T00:33:19;95052.19;;;12.43;95.60
6423;BME280;3244;42.708;23.288;2023-05-15T00:35:46;95055.38;;;12.48;95.33
6423;BME280;3244;42.708;23.288;2023-05-15T00:38:13;95047.69;;;12.49;95.11
6423;BME280;3244;42.708;23.288;2023-05-15T00:40:40;95043.03;;;12.59;94.44
6423;BME280;3244;42.708;23.288;2023-05-15T00:43:10;95027.28;;;12.49;94.54
6423;BME280;3244;42.708;23.288;2023-05-15T00:45:38;95026.00;;;12.39;95.08
6423;BME280;3244;42.708;23.288;2023-05-15T00:48:08;95038.78;;;12.38;95.68
6423;BME280;3244;42.708;23.288;2023-05-15T00:50:35;95046.25;;;12.42;95.53
6423;BME280;3244;42.708;23.288;2023-05-15T00:53:02;95027.34;;;12.27;95.65
6423;BME280;3244;42.708;23.288;2023-05-15T00:55:30;95042.50;;;12.31;95.73
6423;BME280;3244;42.708;23.288;2023-05-15T00:57:59;95040.84;;;12.30;96.00
6423;BME280;3244;42.708;23.288;2023-05-15T01:00:30;95053.81;;;12.23;95.99
6423;BME280;3244;42.708;23.288;2023-05-15T01:02:57;95059.03;;;12.20;96.26
6423;BME280;3244;42.708;23.288;2023-05-15T01:05:24;95046.31;;;12.20;96.16
6423;BME280;3244;42.708;23.288;2023-05-15T01:07:56;95043.75;;;12.20;95.77
6423;BME280;3244;42.708;23.288;2023-05-15T01:10:25;95037.94;;;12.17;95.75
6423;BME280;3244;42.708;23.288;2023-05-15T01:12:52;95048.19;;;12.37;95.20
6423;BME280;3244;42.708;23.288;2023-05-15T01:15:20;95036.63;;;12.29;95.40
6423;BME280;3244;42.708;23.288;2023-05-15T01:17:50;95026.97;;;12.37;94.74
6423;BME280;3244;42.708;23.288;2023-05-15T01:20:17;95016.91;;;12.34;94.80
6423;BME280;3244;42.708;23.288;2023-05-15T01:22:51;95019.34;;;12.37;94.58
6423;BME280;3244;42.708;23.288;2023-05-15T01:25:45;95023.91;;;12.29;94.76
6423;BME280;3244;42.708;23.288;2023-05-15T01:28:21;95010.75;;;12.38;94.67
6423;BME280;3244;42.708;23.288;2023-05-15T01:30:51;94995.09;;;12.47;94.28
6423;BME280;3244;42.708;23.288;2023-05-15T01:33:22;95004.94;;;12.36;94.11
6423;BME280;3244;42.708;23.288;2023-05-15T01:36:05;95009.56;;;12.26;94.56
6423;BME280;3244;42.708;23.288;2023-05-15T01:38:37;95013.19;;;12.20;94.45
6423;BME280;3244;42.708;23.288;2023-05-15T01:41:09;94999.97;;;12.33;94.12
6423;BME280;3244;42.708;23.288;2023-05-15T01:43:40;95000.03;;;12.31;94.43
6423;BME280;3244;42.708;23.288;2023-05-15T01:46:08;94999.25;;;12.29;94.40
6423;BME280;3244;42.708;23.288;2023-05-15T01:48:39;94995.09;;;12.26;94.52
6423;BME280;3244;42.708;23.288;2023-05-15T01:51:06;95003.53;;;12.29;93.95
6423;BME280;3244;42.708;23.288;2023-05-15T01:53:36;94998.84;;;12.38;93.86
6423;BME280;3244;42.708;23.288;2023-05-15T01:56:05;94996.66;;;12.31;93.75
6423;BME280;3244;42.708;23.288;2023-05-15T01:58:36;95005.78;;;12.14;94.52
6423;BME280;3244;42.708;23.288;2023-05-15T02:01:04;94992.81;;;12.20;94.42
6423;BME280;3244;42.708;23.288;2023-05-15T02:03:31;95001.16;;;12.24;94.00
6423;BME280;3244;42.708;23.288;2023-05-15T02:05:59;95008.84;;;12.02;94.55
6423;BME280;3244;42.708;23.288;2023-05-15T02:08:27;95014.16;;;11.96;95.33
6423;BME280;3244;42.708;23.288;2023-05-15T02:10:54;95015.72;;;12.00;95.24
6423;BME280;3244;42.708;23.288;2023-05-15T02:13:23;95008.47;;;12.11;95.12
6423;BME280;3244;42.708;23.288;2023-05-15T02:15:50;95000.56;;;12.17;94.74
6423;BME280;3244;42.708;23.288;2023-05-15T02:18:19;94985.69;;;12.29;94.49
6423;BME280;3244;42.708;23.288;2023-05-15T02:20:46;94990.72;;;12.10;94.55
6423;BME280;3244;42.708;23.288;2023-05-15T02:23:13;95002.50;;;12.12;95.16
6423;BME280;3244;42.708;23.288;2023-05-15T02:25:45;95003.13;;;12.17;95.33
6423;BME280;3244;42.708;23.288;2023-05-15T02:28:19;94984.66;;;12.33;94.81
6423;BME280;3244;42.708;23.288;2023-05-15T02:30:54;94980.34;;;12.35;94.68
6423;BME280;3244;42.708;23.288;2023-05-15T02:33:30;94962.72;;;12.49;94.00
6423;BME280;3244;42.708;23.288;2023-05-15T02:36:04;94965.28;;;12.49;93.79
6423;BME280;3244;42.708;23.288;2023-05-15T02:38:35;94972.94;;;12.29;94.35
6423;BME280;3244;42.708;23.288;2023-05-15T02:41:04;94977.41;;;12.23;95.26
6423;BME280;3244;42.708;23.288;2023-05-15T02:43:31;94988.22;;;12.29;95.24
6423;BME280;3244;42.708;23.288;2023-05-15T02:45:58;94991.41;;;12.34;95.11
6423;BME280;3244;42.708;23.288;2023-05-15T02:48:28;94993.91;;;12.35;95.10
6423;BME280;3244;42.708;23.288;2023-05-15T02:50:54;94982.72;;;12.38;95.25
6423;BME280;3244;42.708;23.288;2023-05-15T02:53:21;94968.97;;;12.42;94.46
6423;BME280;3244;42.708;23.288;2023-05-15T02:55:48;94958.41;;;12.51;92.84
6423;BME280;3244;42.708;23.288;2023-05-15T02:58:14;94970.63;;;12.43;93.76
6423;BME280;3244;42.708;23.288;2023-05-15T03:00:41;94967.31;;;12.41;94.03
6423;BME280;3244;42.708;23.288;2023-05-15T03:03:08;94960.72;;;12.37;94.59
6423;BME280;3244;42.708;23.288;2023-05-15T03:05:36;94978.34;;;12.41;94.56
6423;BME280;3244;42.708;23.288;2023-05-15T03:08:04;94976.75;;;12.39;94.21
6423;BME280;3244;42.708;23.288;2023-05-15T03:10:30;94981.94;;;12.37;94.75
6423;BME280;3244;42.708;23.288;2023-05-15T03:12:57;94990.00;;;12.47;94.16
6423;BME280;3244;42.708;23.288;2023-05-15T03:15:24;94990.25;;;12.41;94.12
6423;BME280;3244;42.708;23.288;2023-05-15T03:17:51;94983.94;;;12.49;94.05
6423;BME280;3244;42.708;23.288;2023-05-15T03:20:17;94991.22;;;12.58;92.34
6423;BME280;3244;42.708;23.288;2023-05-15T03:22:45;94987.34;;;12.50;92.80
6423;BME280;3244;42.708;23.288;2023-05-15T03:25:12;94987.47;;;12.47;92.96
6423;BME280;3244;42.708;23.288;2023-05-15T03:27:39;94976.13;;;12.34;93.79
6423;BME280;3244;42.708;23.288;2023-05-15T03:30:06;94984.91;;;12.26;94.75
6423;BME280;3244;42.708;23.288;2023-05-15T03:32:33;94981.59;;;12.24;95.20
6423;BME280;3244;42.708;23.288;2023-05-15T03:35:00;94970.00;;;12.38;94.67
6423;BME280;3244;42.708;23.288;2023-05-15T03:37:27;94966.69;;;12.56;93.21
6423;BME280;3244;42.708;23.288;2023-05-15T03:39:55;94967.31;;;12.41;93.65
6423;BME280;3244;42.708;23.288;2023-05-15T03:42:21;94969.88;;;12.41;94.70
6423;BME280;3244;42.708;23.288;2023-05-15T03:44:49;94980.56;;;12.49;94.76
6423;BME280;3244;42.708;23.288;2023-05-15T03:47:16;94978.66;;;12.54;94.53
6423;BME280;3244;42.708;23.288;2023-05-15T03:49:43;94977.66;;;12.58;94.68
6423;BME280;3244;42.708;23.288;2023-05-15T03:52:09;94979.97;;;12.63;94.23
6423;BME280;3244;42.708;23.288;2023-05-15T03:54:36;94984.88;;;12.67;94.61
6423;BME280;3244;42.708;23.288;2023-05-15T03:57:04;94974.38;;;12.75;94.31
6423;BME280;3244;42.708;23.288;2023-05-15T03:59:32;94979.16;;;12.82;93.66
6423;BME280;3244;42.708;23.288;2023-05-15T04:01:58;94984.94;;;12.86;93.40
6423;BME280;3244;42.708;23.288;2023-05-15T04:04:25;94985.59;;;12.89;93.44
6423;BME280;3244;42.708;23.288;2023-05-15T04:06:52;94977.97;;;12.89;93.74
6423;BME280;3244;42.708;23.288;2023-05-15T04:09:18;94975.28;;;12.92;93.05
6423;BME280;3244;42.708;23.288;2023-05-15T04:11:45;94980.75;;;13.04;91.57
6423;BME280;3244;42.708;23.288;2023-05-15T04:14:13;94991.66;;;12.87;92.16
6423;BME280;3244;42.708;23.288;2023-05-15T04:16:40;94995.19;;;12.84;92.39
6423;BME280;3244;42.708;23.288;2023-05-15T04:19:06;94996.50;;;12.93;90.94
6423;BME280;3244;42.708;23.288;2023-05-15T04:21:33;95005.53;;;12.81;91.29
6423;BME280;3244;42.708;23.288;2023-05-15T04:24:00;95005.00;;;12.93;91.74
6423;BME280;3244;42.708;23.288;2023-05-15T04:26:26;94991.28;;;12.96;90.84
6423;BME280;3244;42.708;23.288;2023-05-15T04:28:53;94998.44;;;12.88;91.37
6423;BME280;3244;42.708;23.288;2023-05-15T04:31:22;94975.28;;;12.92;90.73
6423;BME280;3244;42.708;23.288;2023-05-15T04:33:49;94978.66;;;13.12;90.08
6423;BME280;3244;42.708;23.288;2023-05-15T04:36:15;94976.28;;;13.09;90.17
6423;BME280;3244;42.708;23.288;2023-05-15T04:38:42;94977.66;;;13.16;90.23
6423;BME280;3244;42.708;23.288;2023-05-15T04:41:08;94965.75;;;13.15;90.13
6423;BME280;3244;42.708;23.288;2023-05-15T04:43:35;94950.34;;;13.18;90.24
6423;BME280;3244;42.708;23.288;2023-05-15T04:46:02;94947.44;;;13.07;91.31
6423;BME280;3244;42.708;23.288;2023-05-15T04:48:30;94968.03;;;12.83;91.73
6423;BME280;3244;42.708;23.288;2023-05-15T04:50:57;94982.16;;;12.90;92.63
6423;BME280;3244;42.708;23.288;2023-05-15T04:53:24;94977.03;;;13.11;92.26
6423;BME280;3244;42.708;23.288;2023-05-15T04:55:51;94978.78;;;13.29;91.62
6423;BME280;3244;42.708;23.288;2023-05-15T04:58:18;94973.25;;;13.38;90.25
6423;BME280;3244;42.708;23.288;2023-05-15T05:00:44;94972.03;;;13.28;90.09
6423;BME280;3244;42.708;23.288;2023-05-15T05:03:11;94972.03;;;13.28;90.19
6423;BME280;3244;42.708;23.288;2023-05-15T05:05:39;94967.22;;;13.39;89.88
6423;BME280;3244;42.708;23.288;2023-05-15T05:08:06;94957.50;;;13.10;90.90
6423;BME280;3244;42.708;23.288;2023-05-15T05:10:32;94953.63;;;12.82;92.16
6423;BME280;3244;42.708;23.288;2023-05-15T05:12:59;94952.16;;;12.58;93.54
6423;BME280;3244;42.708;23.288;2023-05-15T05:15:26;94961.13;;;12.46;94.08
6423;BME280;3244;42.708;23.288;2023-05-15T05:17:52;94972.63;;;12.56;94.57
6423;BME280;3244;42.708;23.288;2023-05-15T05:20:19;94967.34;;;12.80;93.11
6423;BME280;3244;42.708;23.288;2023-05-15T05:22:47;94952.16;;;12.58;93.48
6423;BME280;3244;42.708;23.288;2023-05-15T05:25:14;94950.59;;;12.74;93.08
6423;BME280;3244;42.708;23.288;2023-05-15T05:27:41;94977.22;;;12.67;93.24
6423;BME280;3244;42.708;23.288;2023-05-15T05:30:08;94972.78;;;12.72;93.36
6423;BME280;3244;42.708;23.288;2023-05-15T05:32:35;94959.06;;;12.93;92.54
6423;BME280;3244;42.708;23.288;2023-05-15T05:35:02;94954.75;;;12.95;92.10
6423;BME280;3244;42.708;23.288;2023-05-15T05:37:29;94956.00;;;13.06;91.75
6423;BME280;3244;42.708;23.288;2023-05-15T05:39:57;94959.00;;;13.34;90.88
6423;BME280;3244;42.708;23.288;2023-05-15T05:42:24;94952.41;;;13.47;90.33
6423;BME280;3244;42.708;23.288;2023-05-15T05:44:51;94964.81;;;13.55;90.01
6423;BME280;3244;42.708;23.288;2023-05-15T05:47:17;94963.25;;;13.70;89.23
6423;BME280;3244;42.708;23.288;2023-05-15T05:49:44;94952.63;;;14.13;88.33
6423;BME280;3244;42.708;23.288;2023-05-15T05:52:12;94955.66;;;14.56;86.72
6423;BME280;3244;42.708;23.288;2023-05-15T05:54:40;94958.84;;;14.92;85.02
6423;BME280;3244;42.708;23.288;2023-05-15T05:57:08;94964.00;;;15.57;83.09
6423;BME280;3244;42.708;23.288;2023-05-15T05:59:35;94966.91;;;16.71;77.94
6423;BME280;3244;42.708;23.288;2023-05-15T06:02:02;94963.75;;;17.51;74.39
6423;BME280;3244;42.708;23.288;2023-05-15T06:04:30;94958.94;;;17.04;72.71
6423;BME280;3244;42.708;23.288;2023-05-15T06:06:57;94969.66;;;16.38;75.16
6423;BME280;3244;42.708;23.288;2023-05-15T06:09:24;94965.97;;;15.97;76.78
6423;BME280;3244;42.708;23.288;2023-05-15T06:11:51;94965.91;;;16.29;77.24
6423;BME280;3244;42.708;23.288;2023-05-15T06:14:19;94954.66;;;17.04;73.30
6423;BME280;3244;42.708;23.288;2023-05-15T06:16:46;94945.72;;;17.24;71.57
6423;BME280;3244;42.708;23.288;2023-05-15T06:19:12;94943.53;;;17.18;72.19
6423;BME280;3244;42.708;23.288;2023-05-15T06:21:39;94954.66;;;16.76;73.70
6423;BME280;3244;42.708;23.288;2023-05-15T06:24:06;94956.31;;;16.47;74.78
6423;BME280;3244;42.708;23.288;2023-05-15T06:26:32;94956.09;;;16.36;75.96
6423;BME280;3244;42.708;23.288;2023-05-15T06:28:59;94963.00;;;16.49;75.99
6423;BME280;3244;42.708;23.288;2023-05-15T06:31:27;94961.84;;;15.95;76.66
6423;BME280;3244;42.708;23.288;2023-05-15T06:33:54;94960.59;;;16.90;74.00
6423;BME280;3244;42.708;23.288;2023-05-15T06:36:20;94966.81;;;17.15;71.46
6423;BME280;3244;42.708;23.288;2023-05-15T06:38:47;94971.06;;;17.02;72.61
6423;BME280;3244;42.708;23.288;2023-05-15T06:41:13;94966.75;;;16.74;73.93
6423;BME280;3244;42.708;23.288;2023-05-15T06:43:40;94970.22;;;16.73;73.88
6423;BME280;3244;42.708;23.288;2023-05-15T06:46:07;94971.81;;;16.59;74.05
6423;BME280;3244;42.708;23.288;2023-05-15T06:48:35;94969.94;;;16.91;73.29
6423;BME280;3244;42.708;23.288;2023-05-15T06:51:02;94971.50;;;16.80;73.16
6423;BME280;3244;42.708;23.288;2023-05-15T06:53:29;94968.06;;;17.36;72.67
6423;BME280;3244;42.708;23.288;2023-05-15T06:55:55;94979.03;;;18.85;66.99
6423;BME280;3244;42.708;23.288;2023-05-15T06:58:22;94968.34;;;19.90;62.84
6423;BME280;3244;42.708;23.288;2023-05-15T07:00:49;94969.63;;;21.12;58.88
6423;BME280;3244;42.708;23.288;2023-05-15T07:03:16;94964.88;;;22.27;55.94
6423;BME280;3244;42.708;23.288;2023-05-15T07:05:44;94945.88;;;22.37;54.24
6423;BME280;3244;42.708;23.288;2023-05-15T07:08:10;94963.63;;;21.67;55.30
6423;BME280;3244;42.708;23.288;2023-05-15T07:10:37;94953.75;;;20.94;57.89
6423;BME280;3244;42.708;23.288;2023-05-15T07:13:04;94954.63;;;19.89;60.47
6423;BME280;3244;42.708;23.288;2023-05-15T07:15:30;94957.41;;;18.88;63.68
6423;BME280;3244;42.708;23.288;2023-05-15T07:17:57;94959.63;;;18.42;65.88
6423;BME280;3244;42.708;23.288;2023-05-15T07:20:24;94961.59;;;17.72;68.07
6423;BME280;3244;42.708;23.288;2023-05-15T07:22:52;94970.94;;;17.58;68.65
6423;BME280;3244;42.708;23.288;2023-05-15T07:25:19;94972.69;;;17.31;70.36
6423;BME280;3244;42.708;23.288;2023-05-15T07:27:45;94974.03;;;17.51;70.38
6423;BME280;3244;42.708;23.288;2023-05-15T07:30:12;94971.72;;;17.46;70.15
6423;BME280;3244;42.708;23.288;2023-05-15T07:32:39;94960.91;;;17.41;71.47
6423;BME280;3244;42.708;23.288;2023-05-15T07:35:07;94958.94;;;17.32;70.69
6423;BME280;3244;42.708;23.288;2023-05-15T07:37:35;94945.13;;;17.33;70.37
6423;BME280;3244;42.708;23.288;2023-05-15T07:40:05;94967.19;;;18.05;68.85
6423;BME280;3244;42.708;23.288;2023-05-15T07:42:32;94966.09;;;18.22;67.39
6423;BME280;3244;42.708;23.288;2023-05-15T07:44:59;94961.78;;;18.35;67.12
6423;BME280;3244;42.708;23.288;2023-05-15T07:47:25;94958.59;;;17.92;68.03
6423;BME280;3244;42.708;23.288;2023-05-15T07:49:52;94949.13;;;17.24;69.82
6423;BME280;3244;42.708;23.288;2023-05-15T07:52:19;94960.69;;;16.89;72.11
6423;BME280;3244;42.708;23.288;2023-05-15T07:54:45;94978.09;;;16.84;72.93
6423;BME280;3244;42.708;23.288;2023-05-15T07:57:13;94963.34;;;17.16;72.83
6423;BME280;3244;42.708;23.288;2023-05-15T07:59:40;94972.16;;;16.97;71.64
6423;BME280;3244;42.708;23.288;2023-05-15T08:02:07;94979.22;;;16.50;73.47
6423;BME280;3244;42.708;23.288;2023-05-15T08:04:33;94982.34;;;16.55;74.22
6423;BME280;3244;42.708;23.288;2023-05-15T08:07:00;94986.19;;;16.48;74.10
6423;BME280;3244;42.708;23.288;2023-05-15T08:09:27;94982.72;;;16.19;75.00
6423;BME280;3244;42.708;23.288;2023-05-15T08:11:55;94983.34;;;16.08;75.96
6423;BME280;3244;42.708;23.288;2023-05-15T08:14:23;94980.19;;;16.03;76.33
6423;BME280;3244;42.708;23.288;2023-05-15T08:16:49;94977.88;;;15.98;76.31
6423;BME280;3244;42.708;23.288;2023-05-15T08:19:16;94976.22;;;15.97;76.79
6423;BME280;3244;42.708;23.288;2023-05-15T08:21:43;94981.69;;;16.07;76.83
6423;BME280;3244;42.708;23.288;2023-05-15T08:24:10;94979.31;;;16.18;76.48
6423;BME280;3244;42.708;23.288;2023-05-15T08:26:36;94982.81;;;16.17;76.66
6423;BME280;3244;42.708;23.288;2023-05-15T08:29:03;94987.41;;;15.96;76.59
6423;BME280;3244;42.708;23.288;2023-05-15T08:31:31;94976.75;;;16.18;76.61
6423;BME280;3244;42.708;23.288;2023-05-15T08:34:00;94977.56;;;16.49;75.14
6423;BME280;3244;42.708;23.288;2023-05-15T08:36:27;94973.34;;;16.78;73.90
6423;BME280;3244;42.708;23.288;2023-05-15T08:38:54;94967.47;;;16.90;73.82
6423;BME280;3244;42.708;23.288;2023-05-15T08:41:27;94963.09;;;17.47;73.17
6423;BME280;3244;42.708;23.288;2023-05-15T08:43:56;94970.53;;;17.93;69.66
6423;BME280;3244;42.708;23.288;2023-05-15T08:46:24;94965.00;;;18.51;68.04
6423;BME280;3244;42.708;23.288;2023-05-15T08:48:52;94957.59;;;18.07;68.08
6423;BME280;3244;42.708;23.288;2023-05-15T08:51:20;94966.00;;;17.96;68.53
6423;BME280;3244;42.708;23.288;2023-05-15T08:53:47;94961.22;;;17.78;68.21
6423;BME280;3244;42.708;23.288;2023-05-15T08:56:15;94955.50;;;17.46;69.30
6423;BME280;3244;42.708;23.288;2023-05-15T08:58:42;94957.38;;;17.15;70.86
6423;BME280;3244;42.708;23.288;2023-05-15T09:01:10;94954.19;;;16.97;72.07
6423;BME280;3244;42.708;23.288;2023-05-15T09:03:37;94937.63;;;16.59;73.26
6423;BME280;3244;42.708;23.288;2023-05-15T09:06:07;94933.97;;;16.49;73.95
6423;BME280;3244;42.708;23.288;2023-05-15T09:08:35;94944.78;;;16.54;74.56
6423;BME280;3244;42.708;23.288;2023-05-15T09:11:03;94944.31;;;16.61;74.47
6423;BME280;3244;42.708;23.288;2023-05-15T09:13:32;94941.13;;;16.58;75.38
6423;BME280;3244;42.708;23.288;2023-05-15T09:15:59;94945.16;;;16.48;75.26
6423;BME280;3244;42.708;23.288;2023-05-15T09:18:25;94935.72;;;16.48;75.92
6423;BME280;3244;42.708;23.288;2023-05-15T09:20:53;94939.53;;;16.41;76.39
6423;BME280;3244;42.708;23.288;2023-05-15T09:23:25;94933.66;;;16.39;75.60
6423;BME280;3244;42.708;23.288;2023-05-15T09:25:53;94943.59;;;16.59;74.54
6423;BME280;3244;42.708;23.288;2023-05-15T09:28:25;94929.16;;;16.87;74.65
6423;BME280;3244;42.708;23.288;2023-05-15T09:30:57;94914.09;;;17.09;73.16
6423;BME280;3244;42.708;23.288;2023-05-15T09:33:30;94925.94;;;17.53;70.96
6423;BME280;3244;42.708;23.288;2023-05-15T09:35:57;94921.22;;;17.74;70.36
6423;BME280;3244;42.708;23.288;2023-05-15T09:38:25;94905.38;;;17.53;69.82
6423;BME280;3244;42.708;23.288;2023-05-15T09:41:00;94912.78;;;17.72;69.82
6423;BME280;3244;42.708;23.288;2023-05-15T09:43:28;94903.13;;;17.88;70.16
6423;BME280;3244;42.708;23.288;2023-05-15T09:45:55;94910.75;;;17.89;68.22
6423;BME280;3244;42.708;23.288;2023-05-15T09:48:21;94909.00;;;17.63;69.51
6423;BME280;3244;42.708;23.288;2023-05-15T09:50:48;94897.31;;;17.98;68.38
6423;BME280;3244;42.708;23.288;2023-05-15T09:53:15;94894.66;;;17.46;69.20
6423;BME280;3244;42.708;23.288;2023-05-15T09:55:43;94899.13;;;17.30;71.20
6423;BME280;3244;42.708;23.288;2023-05-15T09:58:12;94890.13;;;17.23;71.15
6423;BME280;3244;42.708;23.288;2023-05-15T10:00:40;94885.13;;;17.34;70.18
6423;BME280;3244;42.708;23.288;2023-05-15T10:03:08;94889.25;;;17.51;70.51
6423;BME280;3244;42.708;23.288;2023-05-15T10:05:35;94891.75;;;17.92;69.32
6423;BME280;3244;42.708;23.288;2023-05-15T10:08:02;94882.53;;;18.15;67.49
6423;BME280;3244;42.708;23.288;2023-05-15T10:10:30;94889.50;;;18.00;68.24
6423;BME280;3244;42.708;23.288;2023-05-15T10:12:59;94886.69;;;17.78;68.98
6423;BME280;3244;42.708;23.288;2023-05-15T10:15:29;94883.88;;;17.68;69.52
6423;BME280;3244;42.708;23.288;2023-05-15T10:17:55;94889.19;;;17.65;69.27
6423;BME280;3244;42.708;23.288;2023-05-15T10:20:24;94920.19;;;17.76;69.00
6423;BME280;3244;42.708;23.288;2023-05-15T10:22:52;94912.06;;;17.82;69.28
6423;BME280;3244;42.708;23.288;2023-05-15T10:25:25;94904.59;;;17.92;69.25
6423;BME280;3244;42.708;23.288;2023-05-15T10:27:53;94904.78;;;17.89;69.09
6423;BME280;3244;42.708;23.288;2023-05-15T10:30:21;94908.03;;;18.18;69.11
6423;BME280;3244;42.708;23.288;2023-05-15T10:32:49;94917.69;;;18.01;68.36
6423;BME280;3244;42.708;23.288;2023-05-15T10:35:17;94922.44;;;18.20;68.68
6423;BME280;3244;42.708;23.288;2023-05-15T10:37:44;94938.38;;;18.00;68.77
6423;BME280;3244;42.708;23.288;2023-05-15T10:40:14;94933.06;;;17.89;69.20
6423;BME280;3244;42.708;23.288;2023-05-15T10:42:41;94930.88;;;17.83;69.19
6423;BME280;3244;42.708;23.288;2023-05-15T10:45:09;94939.88;;;17.90;69.37
6423;BME280;3244;42.708;23.288;2023-05-15T10:47:38;94918.72;;;18.12;69.05
6423;BME280;3244;42.708;23.288;2023-05-15T10:50:07;94928.84;;;18.40;67.82
6423;BME280;3244;42.708;23.288;2023-05-15T10:52:36;94917.34;;;18.46;67.49
6423;BME280;3244;42.708;23.288;2023-05-15T10:55:05;94913.94;;;18.58;67.85
6423;BME280;3244;42.708;23.288;2023-05-15T10:57:32;94913.44;;;18.53;67.61
6423;BME280;3244;42.708;23.288;2023-05-15T10:59:59;94924.88;;;18.61;68.16
6423;BME280;3244;42.708;23.288;2023-05-15T11:02:30;94911.03;;;18.24;68.18
6423;BME280;3244;42.708;23.288;2023-05-15T11:05:05;94905.75;;;18.00;68.25
6423;BME280;3244;42.708;23.288;2023-05-15T11:07:32;94888.25;;;17.93;69.13
6423;BME280;3244;42.708;23.288;2023-05-15T11:09:59;94888.63;;;17.87;70.14
6423;BME280;3244;42.708;23.288;2023-05-15T11:12:55;94908.47;;;17.72;70.99
6423;BME280;3244;42.708;23.288;2023-05-15T11:15:22;94900.66;;;17.74;70.86
6423;BME280;3244;42.708;23.288;2023-05-15T11:18:01;94907.44;;;17.60;71.00
6423;BME280;3244;42.708;23.288;2023-05-15T11:20:36;94892.34;;;17.56;71.65
6423;BME280;3244;42.708;23.288;2023-05-15T11:23:04;94894.78;;;17.57;72.23
6423;BME280;3244;42.708;23.288;2023-05-15T11:25:32;94915.59;;;17.81;71.56
6423;BME280;3244;42.708;23.288;2023-05-15T11:28:01;94889.38;;;17.89;71.23
6423;BME280;3244;42.708;23.288;2023-05-15T11:30:36;94902.03;;;17.92;70.84
6423;BME280;3244;42.708;23.288;2023-05-15T11:33:05;94912.94;;;18.08;70.57
6423;BME280;3244;42.708;23.288;2023-05-15T11:35:38;94898.25;;;18.10;70.07
6423;BME280;3244;42.708;23.288;2023-05-15T11:38:11;94885.50;;;18.09;70.25
6423;BME280;3244;42.708;23.288;2023-05-15T11:40:45;94881.09;;;18.23;69.94
6423;BME280;3244;42.708;23.288;2023-05-15T11:43:16;94872.88;;;18.31;69.29
6423;BME280;3244;42.708;23.288;2023-05-15T11:45:45;94875.13;;;18.23;68.64
6423;BME280;3244;42.708;23.288;2023-05-15T11:48:14;94870.91;;;18.34;68.23
6423;BME280;3244;42.708;23.288;2023-05-15T11:50:43;94866.50;;;18.62;67.32
6423;BME280;3244;42.708;23.288;2023-05-15T11:53:10;94874.75;;;18.80;66.25
6423;BME280;3244;42.708;23.288;2023-05-15T11:55:37;94875.00;;;19.00;65.93
6423;BME280;3244;42.708;23.288;2023-05-15T11:58:10;94868.31;;;18.85;65.29
6423;BME280;3244;42.708;23.288;2023-05-15T12:00:36;94868.34;;;18.73;66.04
6423;BME280;3244;42.708;23.288;2023-05-15T12:03:03;94860.44;;;18.63;66.71
6423;BME280;3244;42.708;23.288;2023-05-15T12:05:30;94863.16;;;18.85;66.28
6423;BME280;3244;42.708;23.288;2023-05-15T12:07:59;94861.53;;;19.21;65.59
6423;BME280;3244;42.708;23.288;2023-05-15T12:10:26;94866.13;;;19.65;65.08
6423;BME280;3244;42.708;23.288;2023-05-15T12:12:53;94862.31;;;19.82;63.55
6423;BME280;3244;42.708;23.288;2023-05-15T12:15:19;94853.44;;;19.38;64.20
6423;BME280;3244;42.708;23.288;2023-05-15T12:17:46;94856.69;;;19.29;64.67
6423;BME280;3244;42.708;23.288;2023-05-15T12:20:15;94860.03;;;19.06;65.89
6423;BME280;3244;42.708;23.288;2023-05-15T12:22:42;94861.47;;;19.10;65.59
6423;BME280;3244;42.708;23.288;2023-05-15T12:25:11;94849.09;;;19.15;65.89
6423;BME280;3244;42.708;23.288;2023-05-15T12:27:39;94822.34;;;19.05;66.08
6423;BME280;3244;42.708;23.288;2023-05-15T12:30:06;94812.00;;;18.81;66.58
6423;BME280;3244;42.708;23.288;2023-05-15T12:32:35;94798.44;;;18.66;67.14
6423;BME280;3244;42.708;23.288;2023-05-15T12:35:03;94808.22;;;18.61;67.20
6423;BME280;3244;42.708;23.288;2023-05-15T12:37:31;94802.69;;;18.42;67.37
6423;BME280;3244;42.708;23.288;2023-05-15T12:39:59;94799.59;;;18.36;67.88
6423;BME280;3244;42.708;23.288;2023-05-15T12:42:28;94783.00;;;18.79;67.38
6423;BME280;3244;42.708;23.288;2023-05-15T12:44:55;94779.25;;;19.07;65.87
6423;BME280;3244;42.708;23.288;2023-05-15T12:47:23;94770.44;;;19.22;65.25
6423;BME280;3244;42.708;23.288;2023-05-15T12:49:50;94769.75;;;19.20;64.86
6423;BME280;3244;42.708;23.288;2023-05-15T12:52:20;94776.31;;;19.24;65.15
6423;BME280;3244;42.708;23.288;2023-05-15T12:54:47;94781.91;;;19.18;65.20
6423;BME280;3244;42.708;23.288;2023-05-15T12:57:14;94782.59;;;19.44;64.30
6423;BME280;3244;42.708;23.288;2023-05-15T12:59:42;94778.09;;;19.58;64.07
6423;BME280;3244;42.708;23.288;2023-05-15T13:02:10;94785.84;;;19.58;63.45
6423;BME280;3244;42.708;23.288;2023-05-15T13:04:37;94779.28;;;19.54;63.42
6423;BME280;3244;42.708;23.288;2023-05-15T13:07:04;94799.28;;;19.86;62.89
6423;BME280;3244;42.708;23.288;2023-05-15T13:09:31;94789.94;;;19.61;63.89
6423;BME280;3244;42.708;23.288;2023-05-15T13:12:00;94770.53;;;19.44;64.26
6423;BME280;3244;42.708;23.288;2023-05-15T13:14:31;94775.28;;;19.50;64.80